Deva — A8OK3 — position and weather

sailwx.info

Track history (hours):
 
Tides and Currents Weather Stations Pressure Air Temp Water Temp Dewpoint Dewpoint Depression Visibility Wind Speed Wind Dir Waves Ship Positions

Deva

Last reported at 2015-May-05 14:27 UTC. Time now 2015-May-05 15:16 UTC.
Position N 37°55' E 122°24'.

Length 259 m; draft 10.4 m.

Type: Ship (hazmat cat A). MMSI: 636013644.

Date/timePositionNaut miles runAvg speedWind from/ knotsBaromVisibWave heightAir tempDewpointWater temp
2015-May-05 14:27N 37°55' E 122°24'4114.3
2015-May-05 11:33N 37°26' E 123°02'2116.8
2015-May-05 10:17N 37°05' E 123°06'1216.8
2015-May-05 09:33N 36°53' E 123°08'1716.8
2015-May-05 08:31N 36°36' E 123°11'5416.7
2015-May-05 05:17N 35°43' E 123°23'1716.6
2015-May-05 04:18N 35°26' E 123°28'15217.4
2015-May-04 19:32N 32°54' E 123°34'3517.7
2015-May-04 17:34N 32°19' E 123°34'1817.8
2015-May-04 16:34N 32°02' E 123°34'1818.5
2015-May-04 15:34N 31°43' E 123°34'1918.7
2015-May-04 14:33N 31°24' E 123°34'1818.4
2015-May-04 13:34N 31°06' E 123°33'2018.4
2015-May-04 12:28N 30°46' E 123°34'1718.3
2015-May-04 11:33N 30°29' E 123°35'2118.2
2015-May-04 10:25N 30°09' E 123°33'1517.4
2015-May-04 09:32N 29°55' E 123°26'1818.1
2015-May-04 08:33N 29°37' E 123°20'1817.7
2015-May-04 07:33N 29°22' E 123°10'37617.1
2015-May-03 09:32N 24°21' E 118°58'1817.8
2015-May-03 08:31N 24°09' E 118°43'1817.8
2015-May-03 07:30N 23°57' E 118°29'10617.6
2015-May-03 01:27N 22°52' E 116°57'14117.1
2015-May-02 17:14N 22°08' E 114°32'1217.4
2015-May-02 16:33N 22°08' E 114°19'1413.3
2015-May-02 15:28N 22°16' E 114°06'4 4.3
2015-May-02 14:31N 22°20' E 114°08'0 0.0
2015-May-02 13:25N 22°20' E 114°08'0 0.0
2015-May-02 12:31N 22°20' E 114°08'0 0.0
2015-May-02 11:07N 22°20' E 114°08'0 0.0
2015-May-02 10:31N 22°20' E 114°08'0 0.0
2015-May-02 09:13N 22°20' E 114°08'0 0.0
2015-May-02 08:31N 22°20' E 114°08'0 0.0
2015-May-02 07:16N 22°20' E 114°08'0 0.0
2015-May-02 06:28N 22°20' E 114°08'0 0.0
2015-May-02 05:30N 22°20' E 114°08'0 0.0
2015-May-02 04:27N 22°20' E 114°08'2 1.8
2015-May-02 03:34N 22°19' E 114°06'1111.2
2015-May-02 02:32N 22°10' E 114°13'1110.9
2015-May-02 01:33N 22°02' E 114°22'  
2015-Apr-29 00:07N 01°16' E 104°11'1119.2
2015-Apr-28 23:33N 01°15' E 104°01'1313.1
2015-Apr-28 22:33N 01°13' E 103°48'4 3.7
2015-Apr-28 21:25N 01°17' E 103°47'0 0.0
2015-Apr-28 20:31N 01°17' E 103°47'0 0.0
2015-Apr-28 19:31N 01°17' E 103°47'0 0.0
2015-Apr-28 18:31N 01°17' E 103°47'0 0.0
2015-Apr-28 17:31N 01°17' E 103°47'0 0.0
2015-Apr-28 16:31N 01°17' E 103°47'0 0.0
2015-Apr-28 15:31N 01°17' E 103°47'0 0.0
2015-Apr-28 14:31N 01°17' E 103°47'0 0.0
2015-Apr-28 13:28N 01°17' E 103°47'0 0.0
2015-Apr-28 12:31N 01°17' E 103°47'0 0.0
2015-Apr-28 11:31N 01°17' E 103°47'0 0.0
2015-Apr-28 10:28N 01°17' E 103°47'0 0.0
2015-Apr-28 09:31N 01°17' E 103°47'0 0.0
2015-Apr-28 08:31N 01°17' E 103°47'0 0.0
2015-Apr-28 07:33N 01°17' E 103°47'2 1.8
2015-Apr-28 06:33N 01°15' E 103°46'6010.0
2015-Apr-28 00:33N 01°37' E 102°50'1312.9
2015-Apr-27 23:33N 01°43' E 102°39'1313.1
2015-Apr-27 22:33N 01°48' E 102°27'1313.4
2015-Apr-27 21:33N 01°54' E 102°15'1613.6
2015-Apr-27 20:23N 02°04' E 102°02'  
Track history (hours):
 
Tides and Currents Weather Stations Pressure Air Temp Water Temp Dewpoint Dewpoint Depression Visibility Wind Speed Wind Dir Waves Ship Positions

Deva

Last reported at 2015-May-05 14:27 UTC. Time now 2015-May-05 15:16 UTC.
Position N 37°55' E 122°24'.

Length 259 m; draft 10.4 m.

Type: Ship (hazmat cat A). MMSI: 636013644.

Date/timePositionNaut miles runAvg speedWind from/ knotsBaromVisibWave heightAir tempDewpointWater temp
2015-May-05 14:27N 37°55' E 122°24'4114.3
2015-May-05 11:33N 37°26' E 123°02'2116.8
2015-May-05 10:17N 37°05' E 123°06'1216.8
2015-May-05 09:33N 36°53' E 123°08'1716.8
2015-May-05 08:31N 36°36' E 123°11'5416.7
2015-May-05 05:17N 35°43' E 123°23'1716.6
2015-May-05 04:18N 35°26' E 123°28'15217.4
2015-May-04 19:32N 32°54' E 123°34'3517.7
2015-May-04 17:34N 32°19' E 123°34'1817.8
2015-May-04 16:34N 32°02' E 123°34'1818.5
2015-May-04 15:34N 31°43' E 123°34'1918.7
2015-May-04 14:33N 31°24' E 123°34'1818.4
2015-May-04 13:34N 31°06' E 123°33'2018.4
2015-May-04 12:28N 30°46' E 123°34'1718.3
2015-May-04 11:33N 30°29' E 123°35'2118.2
2015-May-04 10:25N 30°09' E 123°33'1517.4
2015-May-04 09:32N 29°55' E 123°26'1818.1
2015-May-04 08:33N 29°37' E 123°20'1817.7
2015-May-04 07:33N 29°22' E 123°10'37617.1
2015-May-03 09:32N 24°21' E 118°58'1817.8
2015-May-03 08:31N 24°09' E 118°43'1817.8
2015-May-03 07:30N 23°57' E 118°29'10617.6
2015-May-03 01:27N 22°52' E 116°57'14117.1
2015-May-02 17:14N 22°08' E 114°32'1217.4
2015-May-02 16:33N 22°08' E 114°19'1413.3
2015-May-02 15:28N 22°16' E 114°06'4 4.3
2015-May-02 14:31N 22°20' E 114°08'0 0.0
2015-May-02 13:25N 22°20' E 114°08'0 0.0
2015-May-02 12:31N 22°20' E 114°08'0 0.0
2015-May-02 11:07N 22°20' E 114°08'0 0.0
2015-May-02 10:31N 22°20' E 114°08'0 0.0
2015-May-02 09:13N 22°20' E 114°08'0 0.0
2015-May-02 08:31N 22°20' E 114°08'0 0.0
2015-May-02 07:16N 22°20' E 114°08'0 0.0
2015-May-02 06:28N 22°20' E 114°08'0 0.0
2015-May-02 05:30N 22°20' E 114°08'0 0.0
2015-May-02 04:27N 22°20' E 114°08'2 1.8
2015-May-02 03:34N 22°19' E 114°06'1111.2
2015-May-02 02:32N 22°10' E 114°13'1110.9
2015-May-02 01:33N 22°02' E 114°22'  
2015-Apr-29 00:07N 01°16' E 104°11'1119.2
2015-Apr-28 23:33N 01°15' E 104°01'1313.1
2015-Apr-28 22:33N 01°13' E 103°48'4 3.7
2015-Apr-28 21:25N 01°17' E 103°47'0 0.0
2015-Apr-28 20:31N 01°17' E 103°47'0 0.0
2015-Apr-28 19:31N 01°17' E 103°47'0 0.0
2015-Apr-28 18:31N 01°17' E 103°47'0 0.0
2015-Apr-28 17:31N 01°17' E 103°47'0 0.0
2015-Apr-28 16:31N 01°17' E 103°47'0 0.0
2015-Apr-28 15:31N 01°17' E 103°47'0 0.0
2015-Apr-28 14:31N 01°17' E 103°47'0 0.0
2015-Apr-28 13:28N 01°17' E 103°47'0 0.0
2015-Apr-28 12:31N 01°17' E 103°47'0 0.0
2015-Apr-28 11:31N 01°17' E 103°47'0 0.0
2015-Apr-28 10:28N 01°17' E 103°47'0 0.0
2015-Apr-28 09:31N 01°17' E 103°47'0 0.0
2015-Apr-28 08:31N 01°17' E 103°47'0 0.0
2015-Apr-28 07:33N 01°17' E 103°47'2 1.8
2015-Apr-28 06:33N 01°15' E 103°46'6010.0
2015-Apr-28 00:33N 01°37' E 102°50'1312.9
2015-Apr-27 23:33N 01°43' E 102°39'1313.1
2015-Apr-27 22:33N 01°48' E 102°27'1313.4
2015-Apr-27 21:33N 01°54' E 102°15'1613.6
2015-Apr-27 20:23N 02°04' E 102°02'  

Dump ship's entire track history